sensor_id;sensor_type;location;lat;lon;timestamp;pressure;altitude;pressure_sealevel;temperature;humidity
50093;BME280;35974;47.752;10.290;2023-04-30T00:01:20;93970.00;;;10.40;100.00
50093;BME280;35974;47.752;10.290;2023-04-30T00:03:46;93966.56;;;10.39;100.00
50093;BME280;35974;47.752;10.290;2023-04-30T00:06:13;93966.75;;;10.38;100.00
50093;BME280;35974;47.752;10.290;2023-04-30T00:08:39;93961.50;;;10.24;100.00
50093;BME280;35974;47.752;10.290;2023-04-30T00:11:06;93970.00;;;10.40;100.00
50093;BME280;35974;47.752;10.290;2023-04-30T00:13:32;93969.53;;;10.30;100.00
50093;BME280;35974;47.752;10.290;2023-04-30T00:15:59;93962.72;;;10.29;100.00
50093;BME280;35974;47.752;10.290;2023-04-30T00:18:25;93973.19;;;10.29;100.00
50093;BME280;35974;47.752;10.290;2023-04-30T00:20:51;93974.38;;;10.26;100.00
50093;BME280;35974;47.752;10.290;2023-04-30T00:23:18;93961.91;;;10.35;100.00
50093;BME280;35974;47.752;10.290;2023-04-30T00:25:45;93971.56;;;10.27;100.00
50093;BME280;35974;47.752;10.290;2023-04-30T00:28:11;93982.41;;;10.24;100.00
50093;BME280;35974;47.752;10.290;2023-04-30T00:30:37;93984.63;;;10.21;100.00
50093;BME280;35974;47.752;10.290;2023-04-30T00:33:03;93989.66;;;10.16;100.00
50093;BME280;35974;47.752;10.290;2023-04-30T00:35:31;93986.66;;;10.25;100.00
50093;BME280;35974;47.752;10.290;2023-04-30T00:37:58;93984.00;;;10.12;100.00
50093;BME280;35974;47.752;10.290;2023-04-30T00:40:24;93983.56;;;9.95;100.00
50093;BME280;35974;47.752;10.290;2023-04-30T00:42:50;93978.78;;;10.12;100.00
50093;BME280;35974;47.752;10.290;2023-04-30T00:45:18;93987.56;;;9.91;100.00
50093;BME280;35974;47.752;10.290;2023-04-30T00:47:47;93985.22;;;10.16;100.00
50093;BME280;35974;47.752;10.290;2023-04-30T00:50:14;93985.16;;;9.89;100.00
50093;BME280;35974;47.752;10.290;2023-04-30T00:52:41;93981.09;;;9.80;100.00
50093;BME280;35974;47.752;10.290;2023-04-30T00:55:08;93978.72;;;9.99;100.00
50093;BME280;35974;47.752;10.290;2023-04-30T00:57:35;93978.34;;;10.08;100.00
50093;BME280;35974;47.752;10.290;2023-04-30T01:00:02;93970.78;;;10.34;100.00
50093;BME280;35974;47.752;10.290;2023-04-30T01:02:29;93967.09;;;10.08;100.00
50093;BME280;35974;47.752;10.290;2023-04-30T01:04:56;93962.66;;;10.15;100.00
50093;BME280;35974;47.752;10.290;2023-04-30T01:07:23;93975.50;;;9.97;100.00
50093;BME280;35974;47.752;10.290;2023-04-30T01:09:50;93973.66;;;9.84;100.00
50093;BME280;35974;47.752;10.290;2023-04-30T01:14:56;93983.16;;;9.92;100.00
50093;BME280;35974;47.752;10.290;2023-04-30T01:19:52;93983.56;;;10.02;100.00
50093;BME280;35974;47.752;10.290;2023-04-30T01:30:02;93921.91;;;9.46;100.00
50093;BME280;35974;47.752;10.290;2023-04-30T01:32:28;93972.69;;;9.92;100.00
50093;BME280;35974;47.752;10.290;2023-04-30T01:34:55;93864.31;;;9.12;100.00
50093;BME280;35974;47.752;10.290;2023-04-30T01:42:40;93987.97;;;9.95;100.00
50093;BME280;35974;47.752;10.290;2023-04-30T01:47:59;93982.25;;;9.71;100.00
50093;BME280;35974;47.752;10.290;2023-04-30T01:52:58;93989.16;;;9.85;100.00
50093;BME280;35974;47.752;10.290;2023-04-30T01:55:31;93985.47;;;9.73;100.00
50093;BME280;35974;47.752;10.290;2023-04-30T01:58:01;93986.66;;;9.64;100.00
50093;BME280;35974;47.752;10.290;2023-04-30T02:00:28;93987.88;;;9.68;100.00
50093;BME280;35974;47.752;10.290;2023-04-30T02:02:56;93988.63;;;9.55;100.00
50093;BME280;35974;47.752;10.290;2023-04-30T02:05:22;93982.59;;;9.55;100.00
50093;BME280;35974;47.752;10.290;2023-04-30T02:07:49;93983.44;;;9.62;100.00
50093;BME280;35974;47.752;10.290;2023-04-30T02:10:17;93983.03;;;9.65;100.00
50093;BME280;35974;47.752;10.290;2023-04-30T02:12:44;93980.22;;;9.60;100.00
50093;BME280;35974;47.752;10.290;2023-04-30T02:15:10;93988.16;;;9.38;100.00
50093;BME280;35974;47.752;10.290;2023-04-30T02:17:36;93980.16;;;9.46;100.00
50093;BME280;35974;47.752;10.290;2023-04-30T02:20:03;93976.25;;;9.70;100.00
50093;BME280;35974;47.752;10.290;2023-04-30T02:22:29;93974.69;;;9.89;100.00
50093;BME280;35974;47.752;10.290;2023-04-30T02:24:56;93967.81;;;9.75;100.00
50093;BME280;35974;47.752;10.290;2023-04-30T02:27:23;93968.81;;;9.74;100.00
50093;BME280;35974;47.752;10.290;2023-04-30T02:29:51;93967.44;;;9.78;100.00
50093;BME280;35974;47.752;10.290;2023-04-30T02:32:18;93967.81;;;9.75;100.00
50093;BME280;35974;47.752;10.290;2023-04-30T02:34:44;93970.59;;;9.60;100.00
50093;BME280;35974;47.752;10.290;2023-04-30T02:37:10;93955.88;;;9.52;100.00
50093;BME280;35974;47.752;10.290;2023-04-30T02:39:37;93964.56;;;9.73;100.00
50093;BME280;35974;47.752;10.290;2023-04-30T02:42:03;93965.56;;;9.59;100.00
50093;BME280;35974;47.752;10.290;2023-04-30T02:44:32;93963.31;;;9.56;100.00
50093;BME280;35974;47.752;10.290;2023-04-30T02:46:59;93966.31;;;9.52;100.00
50093;BME280;35974;47.752;10.290;2023-04-30T02:49:25;93967.69;;;9.48;100.00
50093;BME280;35974;47.752;10.290;2023-04-30T02:51:52;93965.56;;;9.59;100.00
50093;BME280;35974;47.752;10.290;2023-04-30T02:54:18;93970.69;;;9.45;100.00
50093;BME280;35974;47.752;10.290;2023-04-30T02:56:45;93959.66;;;9.43;100.00
50093;BME280;35974;47.752;10.290;2023-04-30T02:59:11;93960.88;;;9.47;100.00
50093;BME280;35974;47.752;10.290;2023-04-30T03:01:38;93957.72;;;9.59;100.00
50093;BME280;35974;47.752;10.290;2023-04-30T03:04:05;93954.69;;;9.62;100.00
50093;BME280;35974;47.752;10.290;2023-04-30T03:06:31;93960.25;;;9.45;100.00
50093;BME280;35974;47.752;10.290;2023-04-30T03:08:58;93958.03;;;9.42;100.00
50093;BME280;35974;47.752;10.290;2023-04-30T03:11:25;93960.03;;;9.40;100.00
50093;BME280;35974;47.752;10.290;2023-04-30T03:13:51;93953.81;;;9.41;100.00
50093;BME280;35974;47.752;10.290;2023-04-30T03:16:18;93957.19;;;9.35;100.00
50093;BME280;35974;47.752;10.290;2023-04-30T03:18:45;93951.59;;;9.38;100.00
50093;BME280;35974;47.752;10.290;2023-04-30T03:21:12;93951.22;;;9.41;100.00
50093;BME280;35974;47.752;10.290;2023-04-30T03:23:38;93963.66;;;9.39;100.00
50093;BME280;35974;47.752;10.290;2023-04-30T03:26:05;93960.03;;;9.40;100.00
50093;BME280;35974;47.752;10.290;2023-04-30T03:28:31;93956.88;;;9.51;100.00
50093;BME280;35974;47.752;10.290;2023-04-30T03:30:57;93961.81;;;9.81;100.00
50093;BME280;35974;47.752;10.290;2023-04-30T03:33:24;93957.44;;;9.47;100.00
50093;BME280;35974;47.752;10.290;2023-04-30T03:35:51;93946.84;;;9.62;100.00
50093;BME280;35974;47.752;10.290;2023-04-30T03:38:18;93953.72;;;9.69;100.00
50093;BME280;35974;47.752;10.290;2023-04-30T03:40:44;93956.47;;;9.55;100.00
50093;BME280;35974;47.752;10.290;2023-04-30T03:43:11;93956.31;;;9.63;100.00
50093;BME280;35974;47.752;10.290;2023-04-30T03:45:37;93956.53;;;9.68;100.00
50093;BME280;35974;47.752;10.290;2023-04-30T03:48:03;93952.41;;;9.45;100.00
50093;BME280;35974;47.752;10.290;2023-04-30T03:50:30;93951.22;;;9.48;100.00
50093;BME280;35974;47.752;10.290;2023-04-30T03:52:56;93945.22;;;9.47;100.00
50093;BME280;35974;47.752;10.290;2023-04-30T03:55:23;93942.03;;;9.59;100.00
50093;BME280;35974;47.752;10.290;2023-04-30T03:57:49;93945.59;;;9.44;100.00
50093;BME280;35974;47.752;10.290;2023-04-30T04:00:16;93942.44;;;9.56;100.00
50093;BME280;35974;47.752;10.290;2023-04-30T04:02:42;93949.19;;;9.43;100.00
50093;BME280;35974;47.752;10.290;2023-04-30T04:05:08;93950.59;;;9.39;100.00
50093;BME280;35974;47.752;10.290;2023-04-30T04:07:35;93956.00;;;9.31;100.00
50093;BME280;35974;47.752;10.290;2023-04-30T04:10:02;93953.69;;;9.56;100.00
50093;BME280;35974;47.752;10.290;2023-04-30T04:12:28;93951.22;;;9.41;100.00
50093;BME280;35974;47.752;10.290;2023-04-30T04:14:55;93948.97;;;9.38;100.00
50093;BME280;35974;47.752;10.290;2023-04-30T04:17:21;93945.22;;;9.47;100.00
50093;BME280;35974;47.752;10.290;2023-04-30T04:19:47;93947.63;;;9.49;100.00
50093;BME280;35974;47.752;10.290;2023-04-30T04:22:14;93960.03;;;9.40;100.00
50093;BME280;35974;47.752;10.290;2023-04-30T04:24:40;93949.91;;;9.24;100.00
50093;BME280;35974;47.752;10.290;2023-04-30T04:27:06;93950.34;;;9.34;100.00
50093;BME280;35974;47.752;10.290;2023-04-30T04:29:33;93949.59;;;9.40;100.00
50093;BME280;35974;47.752;10.290;2023-04-30T04:31:59;93946.41;;;9.51;100.00
50093;BME280;35974;47.752;10.290;2023-04-30T04:34:27;93955.72;;;9.61;100.00
50093;BME280;35974;47.752;10.290;2023-04-30T04:36:54;93954.78;;;9.33;100.00
50093;BME280;35974;47.752;10.290;2023-04-30T04:39:20;93962.44;;;9.42;100.00
50093;BME280;35974;47.752;10.290;2023-04-30T04:41:46;93964.03;;;9.29;100.00
50093;BME280;35974;47.752;10.290;2023-04-30T04:44:13;93964.50;;;9.46;100.00
50093;BME280;35974;47.752;10.290;2023-04-30T04:46:40;93961.50;;;9.49;100.00
50093;BME280;35974;47.752;10.290;2023-04-30T04:49:11;93967.69;;;9.42;100.00
50093;BME280;35974;47.752;10.290;2023-04-30T04:51:37;93962.81;;;9.32;100.00
50093;BME280;35974;47.752;10.290;2023-04-30T04:54:04;93967.66;;;9.35;100.00
50093;BME280;35974;47.752;10.290;2023-04-30T04:56:31;93964.44;;;9.33;100.00
50093;BME280;35974;47.752;10.290;2023-04-30T04:58:57;93960.41;;;9.37;100.00
50093;BME280;35974;47.752;10.290;2023-04-30T05:01:33;93962.88;;;9.45;100.00
50093;BME280;35974;47.752;10.290;2023-04-30T05:03:59;93964.09;;;9.49;100.00
50093;BME280;35974;47.752;10.290;2023-04-30T05:06:26;93969.75;;;9.60;100.00
50093;BME280;35974;47.752;10.290;2023-04-30T05:08:53;93970.66;;;9.80;100.00
50093;BME280;35974;47.752;10.290;2023-04-30T05:11:20;93965.59;;;9.72;100.00
50093;BME280;35974;47.752;10.290;2023-04-30T05:13:47;93972.09;;;9.41;100.00
50093;BME280;35974;47.752;10.290;2023-04-30T05:16:13;93975.91;;;9.45;100.00
50093;BME280;35974;47.752;10.290;2023-04-30T05:18:39;93970.94;;;9.50;100.00
50093;BME280;35974;47.752;10.290;2023-04-30T05:21:06;93977.41;;;9.61;100.00
50093;BME280;35974;47.752;10.290;2023-04-30T05:23:32;93976.16;;;9.50;100.00
50093;BME280;35974;47.752;10.290;2023-04-30T05:25:58;93980.56;;;9.50;100.00
50093;BME280;35974;47.752;10.290;2023-04-30T05:28:25;93978.16;;;9.48;100.00
50093;BME280;35974;47.752;10.290;2023-04-30T05:30:51;93979.41;;;9.59;100.00
50093;BME280;35974;47.752;10.290;2023-04-30T05:33:18;93966.94;;;9.61;100.00
50093;BME280;35974;47.752;10.290;2023-04-30T05:35:44;93972.94;;;9.55;100.00
50093;BME280;35974;47.752;10.290;2023-04-30T05:38:10;93973.78;;;9.56;100.00
50093;BME280;35974;47.752;10.290;2023-04-30T05:40:36;93974.16;;;9.52;100.00
50093;BME280;35974;47.752;10.290;2023-04-30T05:43:03;93977.38;;;9.55;100.00
50093;BME280;35974;47.752;10.290;2023-04-30T05:47:59;93973.41;;;9.65;100.00
50093;BME280;35974;47.752;10.290;2023-04-30T05:50:27;93980.97;;;9.53;100.00
50093;BME280;35974;47.752;10.290;2023-04-30T05:52:56;93981.50;;;9.77;100.00
50093;BME280;35974;47.752;10.290;2023-04-30T05:55:22;93987.09;;;9.74;100.00
50093;BME280;35974;47.752;10.290;2023-04-30T05:57:49;93981.88;;;9.74;100.00
50093;BME280;35974;47.752;10.290;2023-04-30T06:00:15;93993.19;;;9.88;100.00
50093;BME280;35974;47.752;10.290;2023-04-30T06:02:42;93983.50;;;9.82;100.00
50093;BME280;35974;47.752;10.290;2023-04-30T06:05:08;93986.34;;;9.87;100.00
50093;BME280;35974;47.752;10.290;2023-04-30T06:07:36;93983.72;;;9.80;100.00
50093;BME280;35974;47.752;10.290;2023-04-30T06:10:02;93979.94;;;9.89;100.00
50093;BME280;35974;47.752;10.290;2023-04-30T06:12:30;93978.16;;;10.10;100.00
50093;BME280;35974;47.752;10.290;2023-04-30T06:14:56;93976.38;;;10.24;100.00
50093;BME280;35974;47.752;10.290;2023-04-30T06:17:23;93974.78;;;10.30;100.00
50093;BME280;35974;47.752;10.290;2023-04-30T06:19:49;93971.94;;;10.24;100.00
50093;BME280;35974;47.752;10.290;2023-04-30T06:22:16;93973.22;;;10.35;100.00
50093;BME280;35974;47.752;10.290;2023-04-30T06:24:42;93969.16;;;10.33;100.00
50093;BME280;35974;47.752;10.290;2023-04-30T06:27:10;93968.75;;;10.22;100.00
50093;BME280;35974;47.752;10.290;2023-04-30T06:29:36;93972.00;;;10.38;100.00
50093;BME280;35974;47.752;10.290;2023-04-30T06:32:02;93973.59;;;10.39;100.00
50093;BME280;35974;47.752;10.290;2023-04-30T06:34:30;93965.16;;;10.57;100.00
50093;BME280;35974;47.752;10.290;2023-04-30T06:36:58;93973.59;;;10.66;100.00
50093;BME280;35974;47.752;10.290;2023-04-30T06:39:25;93969.22;;;10.59;100.00
50093;BME280;35974;47.752;10.290;2023-04-30T06:41:53;93968.38;;;10.39;100.00
50093;BME280;35974;47.752;10.290;2023-04-30T06:44:25;93969.91;;;10.13;100.00
50093;BME280;35974;47.752;10.290;2023-04-30T06:46:51;93967.91;;;10.15;100.00
50093;BME280;35974;47.752;10.290;2023-04-30T06:49:19;93983.19;;;10.18;100.00
50093;BME280;35974;47.752;10.290;2023-04-30T06:51:45;93966.34;;;10.34;100.00
50093;BME280;35974;47.752;10.290;2023-04-30T06:54:12;93973.59;;;10.39;100.00
50093;BME280;35974;47.752;10.290;2023-04-30T06:56:40;93973.03;;;10.50;100.00
50093;BME280;35974;47.752;10.290;2023-04-30T06:59:06;93970.00;;;10.40;100.00
50093;BME280;35974;47.752;10.290;2023-04-30T07:01:33;93967.56;;;10.85;100.00
50093;BME280;35974;47.752;10.290;2023-04-30T07:04:02;93961.53;;;10.78;100.00
50093;BME280;35974;47.752;10.290;2023-04-30T07:06:28;93965.56;;;10.74;100.00
50093;BME280;35974;47.752;10.290;2023-04-30T07:09:00;93964.34;;;10.90;100.00
50093;BME280;35974;47.752;10.290;2023-04-30T07:11:30;93956.28;;;10.91;100.00
50093;BME280;35974;47.752;10.290;2023-04-30T07:13:56;93965.13;;;11.04;100.00
50093;BME280;35974;47.752;10.290;2023-04-30T07:16:25;93961.03;;;11.34;100.00
50093;BME280;35974;47.752;10.290;2023-04-30T07:19:00;93952.53;;;11.46;100.00
50093;BME280;35974;47.752;10.290;2023-04-30T07:21:26;93950.97;;;11.31;100.00
50093;BME280;35974;47.752;10.290;2023-04-30T07:23:53;93951.53;;;11.40;100.00
50093;BME280;35974;47.752;10.290;2023-04-30T07:26:19;93951.28;;;11.55;100.00
50093;BME280;35974;47.752;10.290;2023-04-30T07:28:46;93952.91;;;11.56;100.00
50093;BME280;35974;47.752;10.290;2023-04-30T07:31:13;93948.88;;;11.60;100.00
50093;BME280;35974;47.752;10.290;2023-04-30T07:33:40;93952.97;;;11.43;100.00
50093;BME280;35974;47.752;10.290;2023-04-30T07:36:07;93950.94;;;11.45;100.00
50093;BME280;35974;47.752;10.290;2023-04-30T07:38:33;93939.81;;;11.56;100.00
50093;BME280;35974;47.752;10.290;2023-04-30T07:41:00;93939.91;;;11.75;100.00
50093;BME280;35974;47.752;10.290;2023-04-30T07:43:28;93934.22;;;11.91;100.00
50093;BME280;35974;47.752;10.290;2023-04-30T07:46:02;93940.44;;;11.97;100.00
50093;BME280;35974;47.752;10.290;2023-04-30T07:48:30;93926.34;;;12.23;100.00
50093;BME280;35974;47.752;10.290;2023-04-30T07:50:58;93929.06;;;12.41;100.00
50093;BME280;35974;47.752;10.290;2023-04-30T07:53:27;93922.47;;;12.57;100.00
50093;BME280;35974;47.752;10.290;2023-04-30T07:55:53;93923.63;;;12.87;100.00
50093;BME280;35974;47.752;10.290;2023-04-30T07:58:20;93917.06;;;12.77;100.00
50093;BME280;35974;47.752;10.290;2023-04-30T08:00:47;93919.28;;;13.17;100.00
50093;BME280;35974;47.752;10.290;2023-04-30T08:03:13;93930.47;;;13.13;100.00
50093;BME280;35974;47.752;10.290;2023-04-30T08:05:41;93932.72;;;13.28;100.00
50093;BME280;35974;47.752;10.290;2023-04-30T08:08:08;93925.13;;;13.19;99.65
50093;BME280;35974;47.752;10.290;2023-04-30T08:10:37;93931.13;;;13.27;100.00
50093;BME280;35974;47.752;10.290;2023-04-30T08:13:04;93937.88;;;13.41;100.00
50093;BME280;35974;47.752;10.290;2023-04-30T08:15:33;93929.47;;;13.32;100.00
50093;BME280;35974;47.752;10.290;2023-04-30T08:18:02;93929.69;;;13.49;99.17
50093;BME280;35974;47.752;10.290;2023-04-30T08:20:31;93936.25;;;13.40;98.32
50093;BME280;35974;47.752;10.290;2023-04-30T08:22:57;93927.91;;;13.25;97.22
50093;BME280;35974;47.752;10.290;2023-04-30T08:25:23;93935.28;;;13.16;97.49
50093;BME280;35974;47.752;10.290;2023-04-30T08:27:50;93926.72;;;13.21;99.94
50093;BME280;35974;47.752;10.290;2023-04-30T10:36:56;93890.41;;;16.15;80.65
50093;BME280;35974;47.752;10.290;2023-04-30T10:39:27;93889.00;;;16.24;79.00
50093;BME280;35974;47.752;10.290;2023-04-30T10:42:06;93890.41;;;16.15;77.42
50093;BME280;35974;47.752;10.290;2023-04-30T10:44:38;93883.66;;;16.53;78.22
50093;BME280;35974;47.752;10.290;2023-04-30T10:47:05;93884.78;;;16.74;76.66
50093;BME280;35974;47.752;10.290;2023-04-30T10:49:36;93890.75;;;16.35;77.79
50093;BME280;35974;47.752;10.290;2023-04-30T10:52:04;93876.34;;;16.26;78.34
50093;BME280;35974;47.752;10.290;2023-04-30T10:54:40;93883.59;;;15.73;79.07
50093;BME280;35974;47.752;10.290;2023-04-30T10:57:15;93882.44;;;15.69;79.74
50093;BME280;35974;47.752;10.290;2023-04-30T11:02:39;93867.41;;;16.27;81.44
50093;BME280;35974;47.752;10.290;2023-04-30T11:10:06;93868.09;;;15.77;81.47
50093;BME280;35974;47.752;10.290;2023-04-30T11:12:47;93869.94;;;15.64;83.46
50093;BME280;35974;47.752;10.290;2023-04-30T11:15:15;93872.41;;;15.54;79.96
50093;BME280;35974;47.752;10.290;2023-04-30T11:17:49;93871.03;;;14.87;82.99
50093;BME280;35974;47.752;10.290;2023-04-30T11:20:23;93863.22;;;14.69;84.39
50093;BME280;35974;47.752;10.290;2023-04-30T11:26:04;93865.31;;;14.90;85.94
50093;BME280;35974;47.752;10.290;2023-04-30T11:28:32;93862.63;;;15.26;85.98
50093;BME280;35974;47.752;10.290;2023-04-30T11:31:00;93857.56;;;15.36;83.59
50093;BME280;35974;47.752;10.290;2023-04-30T11:33:30;93862.53;;;15.09;83.88
50093;BME280;35974;47.752;10.290;2023-04-30T11:35:57;93865.03;;;15.27;84.50
50093;BME280;35974;47.752;10.290;2023-04-30T11:38:35;93857.34;;;15.66;86.55
50093;BME280;35974;47.752;10.290;2023-04-30T11:41:02;93853.13;;;16.11;86.32
50093;BME280;35974;47.752;10.290;2023-04-30T11:43:33;93846.34;;;16.32;82.88
50093;BME280;35974;47.752;10.290;2023-04-30T11:46:06;93850.44;;;16.40;79.51
50093;BME280;35974;47.752;10.290;2023-04-30T11:48:34;93852.03;;;16.58;78.64
50093;BME280;35974;47.752;10.290;2023-04-30T11:51:19;93855.09;;;16.50;78.76
50093;BME280;35974;47.752;10.290;2023-04-30T11:53:47;93852.19;;;16.17;78.69
50093;BME280;35974;47.752;10.290;2023-04-30T11:56:17;93857.16;;;16.14;79.51
50093;BME280;35974;47.752;10.290;2023-04-30T11:58:45;93851.41;;;16.17;80.84
50093;BME280;35974;47.752;10.290;2023-04-30T12:01:12;93844.19;;;16.29;79.52
50093;BME280;35974;47.752;10.290;2023-04-30T12:03:39;93849.16;;;16.42;79.25
50093;BME280;35974;47.752;10.290;2023-04-30T12:06:08;93850.41;;;15.89;79.36
50093;BME280;35974;47.752;10.290;2023-04-30T12:08:35;93853.16;;;15.42;80.39
50093;BME280;35974;47.752;10.290;2023-04-30T12:11:02;93851.84;;;15.56;81.46
50093;BME280;35974;47.752;10.290;2023-04-30T12:13:32;93854.44;;;15.80;80.85
50093;BME280;35974;47.752;10.290;2023-04-30T12:16:00;93843.03;;;15.91;79.73
50093;BME280;35974;47.752;10.290;2023-04-30T12:18:26;93839.28;;;15.75;80.23
50093;BME280;35974;47.752;10.290;2023-04-30T12:20:53;93846.22;;;15.64;82.99
50093;BME280;35974;47.752;10.290;2023-04-30T12:23:19;93839.09;;;15.77;80.89
50093;BME280;35974;47.752;10.290;2023-04-30T12:25:46;93833.63;;;15.54;81.02
50093;BME280;35974;47.752;10.290;2023-04-30T12:28:12;93830.28;;;15.59;80.85
50093;BME280;35974;47.752;10.290;2023-04-30T12:30:39;93796.69;;;15.37;82.63
50093;BME280;35974;47.752;10.290;2023-04-30T12:33:08;93824.25;;;15.75;81.41
50093;BME280;35974;47.752;10.290;2023-04-30T12:35:35;93826.72;;;15.36;81.00
50093;BME280;35974;47.752;10.290;2023-04-30T12:38:02;93828.50;;;15.48;82.01
50093;BME280;35974;47.752;10.290;2023-04-30T12:40:29;93834.72;;;15.42;81.99
50093;BME280;35974;47.752;10.290;2023-04-30T12:43:14;93828.50;;;15.48;81.58
50093;BME280;35974;47.752;10.290;2023-04-30T12:45:59;93835.25;;;15.15;83.26
50093;BME280;35974;47.752;10.290;2023-04-30T12:48:28;93824.75;;;15.32;82.26
50093;BME280;35974;47.752;10.290;2023-04-30T12:50:57;93831.03;;;15.43;83.85
50093;BME280;35974;47.752;10.290;2023-04-30T12:53:24;93818.50;;;15.62;83.12
50093;BME280;35974;47.752;10.290;2023-04-30T12:58:35;93816.63;;;15.33;81.75
50093;BME280;35974;47.752;10.290;2023-04-30T13:01:04;93811.28;;;15.57;81.78
50093;BME280;35974;47.752;10.290;2023-04-30T13:03:30;93808.63;;;15.57;80.88
50093;BME280;35974;47.752;10.290;2023-04-30T13:06:03;93804.31;;;15.80;83.31
50093;BME280;35974;47.752;10.290;2023-04-30T13:08:34;93799.22;;;15.90;78.29
50093;BME280;35974;47.752;10.290;2023-04-30T13:11:20;93802.97;;;15.65;80.93
50093;BME280;35974;47.752;10.290;2023-04-30T13:13:46;93795.94;;;15.83;82.28
50093;BME280;35974;47.752;10.290;2023-04-30T13:16:13;93788.81;;;15.83;80.90
50093;BME280;35974;47.752;10.290;2023-04-30T13:18:39;93793.06;;;15.72;79.31
50093;BME280;35974;47.752;10.290;2023-04-30T13:21:08;93791.03;;;15.74;79.40
50093;BME280;35974;47.752;10.290;2023-04-30T13:23:34;93794.69;;;15.73;82.50
50093;BME280;35974;47.752;10.290;2023-04-30T13:26:17;93786.41;;;15.82;81.00
50093;BME280;35974;47.752;10.290;2023-04-30T13:28:44;93790.06;;;15.81;81.51
50093;BME280;35974;47.752;10.290;2023-04-30T13:31:10;93791.78;;;15.58;80.50
50093;BME280;35974;47.752;10.290;2023-04-30T13:33:36;93785.47;;;15.30;82.93
50093;BME280;35974;47.752;10.290;2023-04-30T13:36:03;93789.78;;;15.36;81.58
50093;BME280;35974;47.752;10.290;2023-04-30T13:38:29;93790.94;;;15.41;81.83
50093;BME280;35974;47.752;10.290;2023-04-30T13:43:27;93797.69;;;15.08;82.78
50093;BME280;35974;47.752;10.290;2023-04-30T13:45:53;93788.47;;;15.22;81.74
50093;BME280;35974;47.752;10.290;2023-04-30T13:48:20;93789.31;;;15.40;81.57
50093;BME280;35974;47.752;10.290;2023-04-30T13:50:47;93782.06;;;15.18;82.49
50093;BME280;35974;47.752;10.290;2023-04-30T13:53:13;93782.06;;;15.18;81.62
50093;BME280;35974;47.752;10.290;2023-04-30T13:55:40;93787.63;;;15.05;81.56
50093;BME280;35974;47.752;10.290;2023-04-30T13:58:06;93787.16;;;15.08;83.86
50093;BME280;35974;47.752;10.290;2023-04-30T14:00:32;93782.94;;;15.35;83.50
50093;BME280;35974;47.752;10.290;2023-04-30T14:03:00;93769.22;;;15.50;81.87
50093;BME280;35974;47.752;10.290;2023-04-30T14:05:26;93775.47;;;15.61;82.38
50093;BME280;35974;47.752;10.290;2023-04-30T14:07:53;93768.78;;;15.70;82.21
50093;BME280;35974;47.752;10.290;2023-04-30T14:10:19;93763.81;;;15.86;81.15
50093;BME280;35974;47.752;10.290;2023-04-30T17:04:32;93716.50;;;14.05;86.90
50093;BME280;35974;47.752;10.290;2023-04-30T17:06:59;93711.56;;;14.08;86.33
50093;BME280;35974;47.752;10.290;2023-04-30T17:09:26;93716.75;;;14.15;85.17
50093;BME280;35974;47.752;10.290;2023-04-30T17:11:53;93722.00;;;14.15;86.64
50093;BME280;35974;47.752;10.290;2023-04-30T17:14:21;93724.97;;;14.07;85.84
50093;BME280;35974;47.752;10.290;2023-04-30T17:16:49;93723.47;;;14.11;87.30
50093;BME280;35974;47.752;10.290;2023-04-30T17:19:16;93724.28;;;14.00;86.29
50093;BME280;35974;47.752;10.290;2023-04-30T17:24:14;93724.84;;;14.02;86.91
50093;BME280;35974;47.752;10.290;2023-04-30T17:26:42;93730.22;;;13.95;86.41
50093;BME280;35974;47.752;10.290;2023-04-30T17:29:08;93736.84;;;13.98;87.45
50093;BME280;35974;47.752;10.290;2023-04-30T17:31:34;93741.56;;;13.96;86.81
50093;BME280;35974;47.752;10.290;2023-04-30T17:34:01;93741.88;;;13.87;88.03
50093;BME280;35974;47.752;10.290;2023-04-30T17:36:34;93742.13;;;13.98;85.82
50093;BME280;35974;47.752;10.290;2023-04-30T17:39:00;93744.38;;;13.82;87.32
50093;BME280;35974;47.752;10.290;2023-04-30T17:41:30;93746.44;;;13.80;88.19
50093;BME280;35974;47.752;10.290;2023-04-30T17:43:59;93737.88;;;13.85;88.02
50093;BME280;35974;47.752;10.290;2023-04-30T17:46:27;93752.94;;;13.78;87.77
50093;BME280;35974;47.752;10.290;2023-04-30T17:48:58;93752.72;;;13.79;87.23
50093;BME280;35974;47.752;10.290;2023-04-30T17:51:31;93750.84;;;13.68;87.59
50093;BME280;35974;47.752;10.290;2023-04-30T17:53:58;93749.72;;;13.64;87.60
50093;BME280;35974;47.752;10.290;2023-04-30T17:56:25;93755.56;;;13.66;87.20
50093;BME280;35974;47.752;10.290;2023-04-30T17:58:54;93753.59;;;13.61;87.43
50093;BME280;35974;47.752;10.290;2023-04-30T18:01:22;93746.44;;;13.80;86.34
50093;BME280;35974;47.752;10.290;2023-04-30T18:03:50;93754.19;;;13.63;84.55
50093;BME280;35974;47.752;10.290;2023-04-30T18:06:17;93749.94;;;13.62;87.54
50093;BME280;35974;47.752;10.290;2023-04-30T18:08:43;93751.72;;;13.50;86.96
50093;BME280;35974;47.752;10.290;2023-04-30T18:11:09;93750.50;;;13.52;87.17
50093;BME280;35974;47.752;10.290;2023-04-30T18:13:36;93753.91;;;13.41;87.29
50093;BME280;35974;47.752;10.290;2023-04-30T18:16:03;93753.91;;;13.41;88.02
50093;BME280;35974;47.752;10.290;2023-04-30T18:21:00;93750.38;;;13.29;88.74
50093;BME280;35974;47.752;10.290;2023-04-30T18:23:26;93745.13;;;13.29;88.48
50093;BME280;35974;47.752;10.290;2023-04-30T18:25:52;93752.56;;;13.50;85.46
50093;BME280;35974;47.752;10.290;2023-04-30T18:28:19;93749.66;;;13.40;87.21
50093;BME280;35974;47.752;10.290;2023-04-30T18:30:45;93743.25;;;13.17;88.18
50093;BME280;35974;47.752;10.290;2023-04-30T18:33:12;93747.91;;;13.04;90.09
50093;BME280;35974;47.752;10.290;2023-04-30T18:35:38;93749.41;;;13.11;88.99